Time,TemperatureF,DewpointF,PressureIn,WindDirection,WindDirectionDegrees,WindSpeedMPH,WindSpeedGustMPH,Humidity,HourlyPrecipIn,Conditions,Clouds,dailyrainin,SoftwareType,DateUTC
2013-03-11 00:01:00,42.2,41.1,30.45,WSW,240,0.0,0.0,96,0.00,RA,,0.00,WeatherDisplay:10.37,2013-03-11 07:01:00,
2013-03-11 00:11:00,42.2,41.1,30.46,WSW,241,0.0,0.0,96,0.00,OVC,,0.00,WeatherDisplay:10.37,2013-03-11 07:11:00,
2013-03-11 00:16:00,42.2,41.1,30.45,WSW,241,0.0,0.0,96,0.00,OVC,,0.00,WeatherDisplay:10.37,2013-03-11 07:16:00,
2013-03-11 00:21:00,42.1,41.1,30.45,WSW,241,0.0,0.0,96,0.00,OVC,,0.00,WeatherDisplay:10.37,2013-03-11 07:21:00,
2013-03-11 00:26:00,42.1,41.0,30.45,WSW,240,0.0,0.0,96,0.00,OVC,,0.00,WeatherDisplay:10.37,2013-03-11 07:26:00,
2013-03-11 00:31:00,42.0,40.9,30.45,WSW,241,0.0,0.0,96,0.00,OVC,,0.00,WeatherDisplay:10.37,2013-03-11 07:31:00,
2013-03-11 00:36:00,42.0,40.9,30.45,WSW,241,0.0,0.0,96,0.00,OVC,,0.00,WeatherDisplay:10.37,2013-03-11 07:36:00,
2013-03-11 00:41:00,42.0,40.9,30.45,WSW,241,0.0,0.0,96,0.00,OVC,,0.00,WeatherDisplay:10.37,2013-03-11 07:41:00,
2013-03-11 00:46:00,42.0,40.9,30.45,WSW,241,0.0,0.0,96,0.00,OVC,,0.00,WeatherDisplay:10.37,2013-03-11 07:46:00,
2013-03-11 00:51:00,42.0,40.9,30.45,WSW,240,0.0,0.0,96,0.00,OVC,,0.00,WeatherDisplay:10.37,2013-03-11 07:51:00,
2013-03-11 00:56:00,42.0,40.9,30.45,WSW,240,0.0,0.0,96,0.00,OVC,,0.00,WeatherDisplay:10.37,2013-03-11 07:56:00,
2013-03-11 01:01:00,42.0,40.9,30.45,WSW,240,0.0,0.0,96,0.00,OVC,,0.00,WeatherDisplay:10.37,2013-03-11 08:01:00,
2013-03-11 01:11:00,42.0,40.9,30.45,WSW,241,0.0,0.0,96,0.00,OVC,,0.00,WeatherDisplay:10.37,2013-03-11 08:11:00,
2013-03-11 01:16:00,42.0,40.9,30.45,WSW,241,0.0,0.0,96,0.00,OVC,,0.00,WeatherDisplay:10.37,2013-03-11 08:16:00,
2013-03-11 01:21:00,41.9,40.8,30.45,WSW,241,0.0,0.0,96,0.00,OVC,,0.00,WeatherDisplay:10.37,2013-03-11 08:21:00,
2013-03-11 01:26:00,41.9,40.8,30.45,WSW,241,0.0,0.0,96,0.00,OVC,,0.00,WeatherDisplay:10.37,2013-03-11 08:26:00,
2013-03-11 01:31:00,41.9,40.8,30.45,WSW,240,0.0,0.0,96,0.00,OVC,,0.00,WeatherDisplay:10.37,2013-03-11 08:31:00,
2013-03-11 01:36:00,41.9,40.8,30.45,WSW,240,0.0,0.0,96,0.00,OVC,,0.00,WeatherDisplay:10.37,2013-03-11 08:36:00,
2013-03-11 01:41:00,41.8,40.7,30.45,WSW,241,0.0,0.0,96,0.00,OVC,,0.00,WeatherDisplay:10.37,2013-03-11 08:41:00,
2013-03-11 01:46:00,41.8,40.7,30.45,WSW,241,0.0,0.0,96,0.00,OVC,,0.00,WeatherDisplay:10.37,2013-03-11 08:46:00,
2013-03-11 01:51:00,41.7,40.7,30.45,WSW,241,0.0,0.0,96,0.00,OVC,,0.00,WeatherDisplay:10.37,2013-03-11 08:51:00,
2013-03-11 01:56:00,41.7,40.9,30.45,WSW,241,0.0,0.0,97,0.00,OVC,,0.00,WeatherDisplay:10.37,2013-03-11 08:56:00,
2013-03-11 02:01:00,41.7,40.6,30.45,WSW,241,0.0,0.0,96,0.00,OVC,,0.00,WeatherDisplay:10.37,2013-03-11 09:01:00,
2013-03-11 02:11:00,41.7,40.9,30.45,WSW,240,0.0,0.0,97,0.00,OVC,,0.00,WeatherDisplay:10.37,2013-03-11 09:11:00,
2013-03-11 11:41:00,48.1,41.2,30.40,ENE,63,0.0,3.0,77,0.00,OVC,,0.00,WeatherDisplay:10.37,2013-03-11 18:41:00,
2013-03-11 12:36:00,48.9,41.0,30.38,SSE,151,1.0,4.0,74,0.00,CLR,,0.00,WeatherDisplay:10.37,2013-03-11 19:36:00,
2013-03-11 12:46:00,49.5,41.6,30.38,SSE,156,1.0,3.0,74,0.00,OVC,,0.00,WeatherDisplay:10.37,2013-03-11 19:46:00,
2013-03-11 12:51:00,49.7,41.4,30.38,SE,143,1.0,2.0,73,0.00,OVC,,0.00,WeatherDisplay:10.37,2013-03-11 19:51:00,
2013-03-11 12:56:00,49.6,41.7,30.38,SE,137,0.0,1.0,74,0.00,OVC,,0.00,WeatherDisplay:10.37,2013-03-11 19:56:00,
2013-03-11 13:01:00,49.7,42.1,30.38,South,179,1.0,3.0,75,0.00,OVC,,0.00,WeatherDisplay:10.37,2013-03-11 20:01:00,
2013-03-11 13:06:00,49.6,41.7,30.38,SSW,192,0.0,1.0,74,0.00,OVC,,0.00,WeatherDisplay:10.37,2013-03-11 20:06:00,
2013-03-11 13:11:00,49.7,41.7,30.38,SW,228,0.0,3.0,74,0.00,OVC,,0.00,WeatherDisplay:10.37,2013-03-11 20:11:00,
2013-03-11 13:16:00,49.7,41.4,30.38,WSW,237,2.0,5.0,73,0.00,OVC,,0.00,WeatherDisplay:10.37,2013-03-11 20:16:00,
2013-03-11 13:21:00,49.3,41.4,30.37,SW,234,2.0,4.0,74,0.00,OVC,,0.00,WeatherDisplay:10.37,2013-03-11 20:21:00,
2013-03-11 13:26:00,49.3,41.4,30.37,WSW,238,1.0,4.0,74,0.00,OVC,,0.00,WeatherDisplay:10.37,2013-03-11 20:26:00,
2013-03-11 13:31:00,49.5,41.6,30.37,SW,227,1.0,3.0,74,0.00,OVC,,0.00,WeatherDisplay:10.37,2013-03-11 20:31:00,
2013-03-11 13:36:00,49.6,41.7,30.37,SW,229,1.0,4.0,74,0.00,OVC,,0.00,WeatherDisplay:10.37,2013-03-11 20:36:00,
2013-03-11 13:41:00,49.9,41.2,30.37,West,259,0.0,2.0,72,0.00,OVC,,0.00,WeatherDisplay:10.37,2013-03-11 20:41:00,
2013-03-11 13:46:00,50.1,41.8,30.36,WSW,254,1.0,4.0,73,0.00,OVC,,0.00,WeatherDisplay:10.37,2013-03-11 20:46:00,
2013-03-11 13:51:00,50.5,41.8,30.36,SSW,207,2.0,4.0,72,0.00,OVC,,0.00,WeatherDisplay:10.37,2013-03-11 20:51:00,
2013-03-11 13:56:00,50.4,41.0,30.36,ESE,120,1.0,3.0,70,0.00,OVC,,0.00,WeatherDisplay:10.37,2013-03-11 20:56:00,
2013-03-11 14:01:00,50.2,41.2,30.36,ESE,103,0.0,3.0,71,0.00,OVC,,0.00,WeatherDisplay:10.37,2013-03-11 21:01:00,
2013-03-11 14:06:00,50.5,41.4,30.35,SW,216,0.0,2.0,71,0.00,OVC,,0.00,WeatherDisplay:10.37,2013-03-11 21:06:00,
2013-03-11 14:11:00,50.7,41.6,30.35,SW,233,0.0,1.0,71,0.00,OVC,,0.00,WeatherDisplay:10.37,2013-03-11 21:11:00,
2013-03-11 14:16:00,50.7,41.6,30.35,SW,221,0.0,2.0,71,0.00,OVC,,0.00,WeatherDisplay:10.37,2013-03-11 21:16:00,
2013-03-11 14:21:00,50.7,41.6,30.35,SW,224,1.0,4.0,71,0.00,OVC,,0.00,WeatherDisplay:10.37,2013-03-11 21:21:00,
2013-03-11 14:26:00,50.5,42.2,30.34,SW,230,1.0,4.0,73,0.00,OVC,,0.00,WeatherDisplay:10.37,2013-03-11 21:26:00,
2013-03-11 14:31:00,50.7,42.4,30.34,SW,236,0.0,2.0,73,0.00,OVC,,0.00,WeatherDisplay:10.37,2013-03-11 21:31:00,
2013-03-11 14:36:00,50.9,42.6,30.34,WSW,252,1.0,3.0,73,0.00,OVC,,0.00,WeatherDisplay:10.37,2013-03-11 21:36:00,
2013-03-11 14:41:00,51.1,42.7,30.34,WSW,241,1.0,4.0,73,0.00,OVC,,0.00,WeatherDisplay:10.37,2013-03-11 21:41:00,
2013-03-11 14:46:00,51.2,43.2,30.33,SW,230,0.0,3.0,74,0.00,OVC,,0.00,WeatherDisplay:10.37,2013-03-11 21:46:00,
2013-03-11 14:51:00,51.3,42.6,30.33,SW,232,1.0,4.0,72,0.00,OVC,,0.00,WeatherDisplay:10.37,2013-03-11 21:51:00,
2013-03-11 14:56:00,51.0,42.3,30.33,WSW,237,1.0,6.0,72,0.00,OVC,,0.00,WeatherDisplay:10.37,2013-03-11 21:56:00,
2013-03-11 15:01:00,51.0,42.3,30.33,WSW,240,1.0,3.0,72,0.00,OVC,,0.00,WeatherDisplay:10.37,2013-03-11 22:01:00,
2013-03-11 15:06:00,51.1,42.3,30.33,WSW,240,1.0,4.0,72,0.00,OVC,,0.00,WeatherDisplay:10.37,2013-03-11 22:06:00,
2013-03-11 15:11:00,51.0,42.6,30.33,SW,233,1.0,4.0,73,0.00,OVC,,0.00,WeatherDisplay:10.37,2013-03-11 22:11:00,
2013-03-11 15:16:00,51.0,42.2,30.33,SW,224,2.0,4.0,72,0.00,OVC,,0.00,WeatherDisplay:10.37,2013-03-11 22:16:00,
2013-03-11 15:21:00,51.0,42.6,30.33,SW,228,1.0,4.0,73,0.00,OVC,,0.00,WeatherDisplay:10.37,2013-03-11 22:21:00,
2013-03-11 15:26:00,50.9,42.6,30.33,WSW,250,2.0,4.0,73,0.00,OVC,,0.00,WeatherDisplay:10.37,2013-03-11 22:26:00,
2013-03-11 15:31:00,50.7,42.7,30.32,SSW,209,1.0,3.0,74,0.00,OVC,,0.00,WeatherDisplay:10.37,2013-03-11 22:31:00,
2013-03-11 15:36:00,50.6,42.3,30.32,WSW,240,1.0,5.0,73,0.00,OVC,,0.00,WeatherDisplay:10.37,2013-03-11 22:36:00,
2013-03-11 15:41:00,50.6,42.6,30.32,WSW,253,0.0,3.0,74,0.00,OVC,,0.00,WeatherDisplay:10.37,2013-03-11 22:41:00,
2013-03-11 15:46:00,50.5,42.5,30.32,South,172,1.0,4.0,74,0.00,OVC,,0.00,WeatherDisplay:10.37,2013-03-11 22:46:00,
2013-03-11 15:51:00,50.6,43.0,30.32,South,174,0.0,3.0,75,0.00,OVC,,0.00,WeatherDisplay:10.37,2013-03-11 22:51:00,
2013-03-11 15:56:00,50.5,42.5,30.32,South,177,1.0,3.0,74,0.00,OVC,,0.00,WeatherDisplay:10.37,2013-03-11 22:56:00,
2013-03-11 16:01:00,50.4,42.8,30.32,SSW,201,1.0,3.0,75,0.00,OVC,,0.00,WeatherDisplay:10.37,2013-03-11 23:01:00,
2013-03-11 16:06:00,50.2,42.6,30.31,South,177,1.0,2.0,75,0.00,OVC,,0.00,WeatherDisplay:10.37,2013-03-11 23:06:00,
2013-03-11 16:11:00,50.2,42.6,30.31,South,175,0.0,1.0,75,0.00,OVC,,0.00,WeatherDisplay:10.37,2013-03-11 23:11:00,
2013-03-11 16:16:00,50.1,42.5,30.31,West,263,1.0,3.0,75,0.00,OVC,,0.00,WeatherDisplay:10.37,2013-03-11 23:16:00,
2013-03-11 16:21:00,50.1,42.8,30.31,West,262,0.0,3.0,76,0.00,OVC,,0.00,WeatherDisplay:10.37,2013-03-11 23:21:00,
2013-03-11 16:26:00,50.2,42.9,30.31,WSW,239,0.0,3.0,76,0.00,OVC,,0.00,WeatherDisplay:10.37,2013-03-11 23:26:00,
2013-03-11 16:31:00,50.1,42.8,30.31,South,183,0.0,2.0,76,0.00,OVC,,0.00,WeatherDisplay:10.37,2013-03-11 23:31:00,
2013-03-11 16:36:00,50.2,42.9,30.31,ESE,117,0.0,1.0,76,0.00,OVC,,0.00,WeatherDisplay:10.37,2013-03-11 23:36:00,
2013-03-11 16:41:00,50.3,43.0,30.31,SE,126,0.0,1.0,76,0.00,OVC,,0.00,WeatherDisplay:10.37,2013-03-11 23:41:00,
2013-03-11 16:46:00,50.4,43.1,30.31,SW,226,0.0,1.0,76,0.00,OVC,,0.00,WeatherDisplay:10.37,2013-03-11 23:46:00,
2013-03-11 16:51:00,50.5,43.2,30.31,WSW,243,0.0,3.0,76,0.00,OVC,,0.00,WeatherDisplay:10.37,2013-03-11 23:51:00,
2013-03-11 17:01:00,50.6,43.0,30.31,SW,230,0.0,1.0,75,0.00,OVC,,0.00,WeatherDisplay:10.37,2013-03-12 00:01:00,
2013-03-11 17:06:00,50.5,43.2,30.31,SSW,197,0.0,0.0,76,0.00,OVC,,0.00,WeatherDisplay:10.37,2013-03-12 00:06:00,
2013-03-11 17:11:00,50.4,43.1,30.30,South,189,0.0,1.0,76,0.00,OVC,,0.00,WeatherDisplay:10.37,2013-03-12 00:11:00,
2013-03-11 17:16:00,50.5,43.2,30.30,SSW,204,0.0,2.0,76,0.00,OVC,,0.00,WeatherDisplay:10.37,2013-03-12 00:16:00,
2013-03-11 17:21:00,50.4,43.1,30.30,SW,226,0.0,2.0,76,0.00,OVC,,0.00,WeatherDisplay:10.37,2013-03-12 00:21:00,
2013-03-11 17:26:00,50.3,43.4,30.30,SW,225,2.0,3.0,77,0.00,OVC,,0.00,WeatherDisplay:10.37,2013-03-12 00:26:00,
2013-03-11 17:31:00,50.1,43.8,30.29,SW,235,0.0,3.0,79,0.00,OVC,,0.00,WeatherDisplay:10.37,2013-03-12 00:31:00,
2013-03-11 17:36:00,49.8,43.6,30.29,SW,232,2.0,3.0,79,0.00,OVC,,0.00,WeatherDisplay:10.37,2013-03-12 00:36:00,
2013-03-11 17:41:00,49.7,44.1,30.29,SW,229,0.0,1.0,81,0.00,OVC,,0.00,WeatherDisplay:10.37,2013-03-12 00:41:00,
2013-03-11 17:46:00,49.4,44.1,30.28,SSE,157,0.0,1.0,82,0.00,OVC,,0.00,WeatherDisplay:10.37,2013-03-12 00:46:00,
2013-03-11 17:51:00,49.2,43.9,30.28,SE,142,0.0,1.0,82,0.00,OVC,,0.00,WeatherDisplay:10.37,2013-03-12 00:51:00,
2013-03-11 17:56:00,49.1,44.2,30.28,SE,142,0.0,0.0,83,0.00,OVC,,0.00,WeatherDisplay:10.37,2013-03-12 00:56:00,
2013-03-11 18:01:00,49.0,44.4,30.28,SE,142,0.0,0.0,84,0.00,OVC,,0.00,WeatherDisplay:10.37,2013-03-12 01:01:00,
2013-03-11 18:06:00,48.8,44.2,30.28,SE,142,0.0,1.0,84,0.00,OVC,,0.00,WeatherDisplay:10.37,2013-03-12 01:06:00,
2013-03-11 18:11:00,48.7,44.4,30.28,SSE,147,0.0,1.0,85,0.00,OVC,,0.00,WeatherDisplay:10.37,2013-03-12 01:11:00,
2013-03-11 18:16:00,48.5,43.9,30.28,SE,146,0.0,1.0,84,0.00,-RA,,0.00,WeatherDisplay:10.37,2013-03-12 01:16:00,
2013-03-11 18:21:00,48.4,44.4,30.28,SE,145,0.0,1.0,86,0.00,-RA,,0.00,WeatherDisplay:10.37,2013-03-12 01:21:00,
2013-03-11 18:26:00,48.3,44.6,30.28,SSE,158,0.0,1.0,87,0.00,-RA,,0.00,WeatherDisplay:10.37,2013-03-12 01:26:00,
2013-03-11 18:31:00,48.2,44.8,30.27,SSW,201,0.0,1.0,88,0.00,-RA,,0.00,WeatherDisplay:10.37,2013-03-12 01:31:00,
2013-03-11 18:41:00,47.8,44.7,30.27,SSW,213,0.0,1.0,89,0.00,-RA,,0.01,WeatherDisplay:10.37,2013-03-12 01:41:00,
2013-03-11 18:46:00,47.6,44.5,30.27,SSW,211,0.0,1.0,89,0.00,-RA,,0.01,WeatherDisplay:10.37,2013-03-12 01:46:00,
2013-03-11 18:51:00,47.5,44.7,30.27,SSW,211,0.0,0.0,90,0.00,-RA,,0.01,WeatherDisplay:10.37,2013-03-12 01:51:00,
2013-03-11 18:56:00,47.3,44.8,30.27,SSW,211,0.0,0.0,91,0.01,-RA,,0.02,WeatherDisplay:10.37,2013-03-12 01:56:00,
2013-03-11 19:01:00,47.2,44.7,30.27,SSW,212,0.0,1.0,91,0.00,-RA,,0.02,WeatherDisplay:10.37,2013-03-12 02:01:00,
2013-03-11 19:06:00,47.1,44.9,30.26,SSW,211,0.0,0.0,92,0.00,-RA,,0.02,WeatherDisplay:10.37,2013-03-12 02:06:00,
2013-03-11 19:11:00,46.9,44.7,30.26,SSW,211,0.0,0.0,92,0.00,-RA,,0.02,WeatherDisplay:10.37,2013-03-12 02:11:00,
2013-03-11 19:16:00,46.8,44.6,30.26,SSW,211,0.0,0.0,92,0.00,-RA,,0.02,WeatherDisplay:10.37,2013-03-12 02:16:00,
2013-03-11 19:21:00,46.7,44.8,30.26,SSW,211,0.0,1.0,93,0.00,-RA,,0.02,WeatherDisplay:10.37,2013-03-12 02:21:00,
2013-03-11 19:26:00,46.5,44.6,30.25,SSW,211,0.0,0.0,93,0.01,-RA,,0.03,WeatherDisplay:10.37,2013-03-12 02:26:00,
2013-03-11 19:31:00,46.4,44.8,30.25,SSW,198,0.0,0.0,94,0.00,-RA,,0.03,WeatherDisplay:10.37,2013-03-12 02:31:00,
2013-03-11 19:36:00,46.3,44.7,30.25,South,187,0.0,0.0,94,0.00,-RA,,0.03,WeatherDisplay:10.37,2013-03-12 02:36:00,
2013-03-11 19:41:00,46.2,44.6,30.25,South,187,0.0,0.0,94,0.00,-RA,,0.03,WeatherDisplay:10.37,2013-03-12 02:41:00,
2013-03-11 19:46:00,46.1,44.5,30.25,South,187,0.0,0.0,94,0.00,-RA,,0.03,WeatherDisplay:10.37,2013-03-12 02:46:00,
2013-03-11 19:51:00,46.0,44.4,30.25,South,187,0.0,0.0,94,0.00,-RA,,0.03,WeatherDisplay:10.37,2013-03-12 02:51:00,
2013-03-11 19:56:00,46.0,44.6,30.24,South,187,0.0,0.0,95,0.00,-RA,,0.03,WeatherDisplay:10.37,2013-03-12 02:56:00,
2013-03-11 20:01:00,45.9,44.5,30.24,South,187,0.0,0.0,95,0.00,-RA,,0.03,WeatherDisplay:10.37,2013-03-12 03:01:00,
2013-03-11 20:06:00,45.8,44.5,30.24,South,187,0.0,0.0,95,0.00,-RA,,0.03,WeatherDisplay:10.37,2013-03-12 03:06:00,
2013-03-11 20:11:00,45.8,44.4,30.23,South,187,0.0,0.0,95,0.00,-RA,,0.03,WeatherDisplay:10.37,2013-03-12 03:11:00,
2013-03-11 20:16:00,45.8,44.4,30.23,South,187,0.0,0.0,95,0.00,-RA,,0.03,WeatherDisplay:10.37,2013-03-12 03:16:00,
2013-03-11 20:21:00,45.7,44.4,30.23,South,187,0.0,0.0,95,0.00,-RA,,0.03,WeatherDisplay:10.37,2013-03-12 03:21:00,
2013-03-11 20:26:00,45.7,44.6,30.22,South,187,0.0,0.0,96,0.00,-RA,,0.03,WeatherDisplay:10.37,2013-03-12 03:26:00,
2013-03-11 20:31:00,45.6,44.6,30.21,South,187,0.0,0.0,96,0.00,-RA,,0.03,WeatherDisplay:10.37,2013-03-12 03:31:00,
2013-03-11 20:36:00,45.6,44.5,30.22,South,187,0.0,0.0,96,0.00,-RA,,0.03,WeatherDisplay:10.37,2013-03-12 03:36:00,
2013-03-11 20:41:00,45.6,44.5,30.22,South,187,0.0,0.0,96,0.00,-RA,,0.03,WeatherDisplay:10.37,2013-03-12 03:41:00,
2013-03-11 20:46:00,45.6,44.5,30.22,South,184,0.0,2.0,96,0.00,-RA,,0.03,WeatherDisplay:10.37,2013-03-12 03:46:00,
2013-03-11 20:51:00,45.6,44.5,30.22,South,174,0.0,1.0,96,0.00,-RA,,0.03,WeatherDisplay:10.37,2013-03-12 03:51:00,
2013-03-11 20:56:00,45.6,44.5,30.22,SSE,162,0.0,0.0,96,0.00,-RA,,0.03,WeatherDisplay:10.37,2013-03-12 03:56:00,
2013-03-11 21:01:00,45.6,44.5,30.21,SSE,162,0.0,0.0,96,0.00,-RA,,0.03,WeatherDisplay:10.37,2013-03-12 04:01:00,
2013-03-11 21:06:00,45.6,44.5,30.21,SSE,162,0.0,0.0,96,0.00,-RA,,0.03,WeatherDisplay:10.37,2013-03-12 04:06:00,
2013-03-11 21:11:00,45.5,44.4,30.21,SSE,163,0.0,0.0,96,0.00,-RA,,0.03,WeatherDisplay:10.37,2013-03-12 04:11:00,
2013-03-11 21:16:00,45.5,44.4,30.22,SSE,162,0.0,0.0,96,0.00,OVC,,0.03,WeatherDisplay:10.37,2013-03-12 04:16:00,
2013-03-11 21:21:00,45.6,44.8,30.22,SSE,167,0.0,0.0,97,0.00,OVC,,0.03,WeatherDisplay:10.37,2013-03-12 04:21:00,
2013-03-11 21:26:00,45.7,44.9,30.22,South,184,0.0,2.0,97,0.00,OVC,,0.03,WeatherDisplay:10.37,2013-03-12 04:26:00,
2013-03-11 21:31:00,45.7,44.6,30.22,SW,222,0.0,1.0,96,0.00,OVC,,0.03,WeatherDisplay:10.37,2013-03-12 04:31:00,
2013-03-11 21:36:00,45.7,44.6,30.22,WSW,238,0.0,0.0,96,0.00,OVC,,0.03,WeatherDisplay:10.37,2013-03-12 04:36:00,
2013-03-11 21:41:00,45.7,44.6,30.21,WSW,238,0.0,0.0,96,0.00,OVC,,0.03,WeatherDisplay:10.37,2013-03-12 04:41:00,
2013-03-11 21:46:00,45.7,44.6,30.21,WSW,238,0.0,0.0,96,0.00,OVC,,0.03,WeatherDisplay:10.37,2013-03-12 04:46:00,
2013-03-11 21:51:00,45.7,44.6,30.20,WSW,238,0.0,1.0,96,0.00,OVC,,0.03,WeatherDisplay:10.37,2013-03-12 04:51:00,
2013-03-11 21:56:00,45.7,44.6,30.20,SSW,199,0.0,1.0,96,0.00,OVC,,0.03,WeatherDisplay:10.37,2013-03-12 04:56:00,
2013-03-11 22:01:00,45.7,44.6,30.20,SSE,159,0.0,0.0,96,0.00,OVC,,0.03,WeatherDisplay:10.37,2013-03-12 05:01:00,
2013-03-11 22:06:00,45.6,44.5,30.20,SSE,159,0.0,0.0,96,0.00,OVC,,0.03,WeatherDisplay:10.37,2013-03-12 05:06:00,
2013-03-11 22:11:00,45.6,44.5,30.20,SSE,159,0.0,0.0,96,0.00,OVC,,0.03,WeatherDisplay:10.37,2013-03-12 05:11:00,
2013-03-11 22:16:00,45.6,44.5,30.20,SSE,159,0.0,0.0,96,0.00,OVC,,0.03,WeatherDisplay:10.37,2013-03-12 05:16:00,
2013-03-11 22:21:00,45.6,44.5,30.20,SSE,159,0.0,1.0,96,0.00,OVC,,0.03,WeatherDisplay:10.37,2013-03-12 05:21:00,
2013-03-11 22:26:00,45.5,44.4,30.20,SSE,159,0.0,0.0,96,0.00,OVC,,0.03,WeatherDisplay:10.37,2013-03-12 05:26:00,
2013-03-11 22:31:00,45.5,44.4,30.20,SSE,159,0.0,0.0,96,0.00,OVC,,0.03,WeatherDisplay:10.37,2013-03-12 05:31:00,
2013-03-11 22:36:00,45.5,44.4,30.19,SSE,160,0.0,2.0,96,0.00,OVC,,0.03,WeatherDisplay:10.37,2013-03-12 05:36:00,
2013-03-11 22:41:00,45.5,44.4,30.19,SSE,160,0.0,1.0,96,0.00,OVC,,0.03,WeatherDisplay:10.37,2013-03-12 05:41:00,
2013-03-11 22:46:00,45.6,44.5,30.19,SSE,154,1.0,3.0,96,0.00,OVC,,0.03,WeatherDisplay:10.37,2013-03-12 05:46:00,
2013-03-11 22:51:00,45.6,44.5,30.19,SSE,149,0.0,2.0,96,0.00,OVC,,0.03,WeatherDisplay:10.37,2013-03-12 05:51:00,
2013-03-11 22:56:00,45.6,44.5,30.19,SSE,161,0.0,2.0,96,0.00,OVC,,0.03,WeatherDisplay:10.37,2013-03-12 05:56:00,
2013-03-11 23:01:00,45.6,44.6,30.19,SSE,154,0.0,2.0,96,0.00,OVC,,0.03,WeatherDisplay:10.37,2013-03-12 06:01:00,
2013-03-11 23:06:00,45.7,44.6,30.19,SSE,150,0.0,1.0,96,0.00,OVC,,0.03,WeatherDisplay:10.37,2013-03-12 06:06:00,
2013-03-11 23:11:00,45.7,44.6,30.18,SSE,155,1.0,2.0,96,0.00,OVC,,0.03,WeatherDisplay:10.37,2013-03-12 06:11:00,
2013-03-11 23:16:00,45.7,44.6,30.18,SSE,151,1.0,2.0,96,0.00,OVC,,0.03,WeatherDisplay:10.37,2013-03-12 06:16:00,
2013-03-11 23:21:00,45.8,44.7,30.18,SSE,153,0.0,2.0,96,0.00,OVC,,0.03,WeatherDisplay:10.37,2013-03-12 06:21:00,
2013-03-11 23:26:00,45.8,44.7,30.18,SSE,161,0.0,3.0,96,0.00,OVC,,0.03,WeatherDisplay:10.37,2013-03-12 06:26:00,
2013-03-11 23:31:00,45.9,44.9,30.18,SE,141,2.0,5.0,96,0.00,OVC,,0.03,WeatherDisplay:10.37,2013-03-12 06:31:00,
2013-03-11 23:36:00,46.1,45.0,30.18,SSE,149,1.0,4.0,96,0.00,OVC,,0.03,WeatherDisplay:10.37,2013-03-12 06:36:00,
2013-03-11 23:41:00,46.4,45.0,30.18,SSE,153,2.0,5.0,95,0.00,OVC,,0.03,WeatherDisplay:10.37,2013-03-12 06:41:00,
2013-03-11 23:46:00,46.6,45.3,30.17,SSE,155,1.0,2.0,95,0.00,OVC,,0.03,WeatherDisplay:10.37,2013-03-12 06:46:00,
2013-03-11 23:51:00,46.8,45.1,30.17,SE,141,1.0,4.0,94,0.00,OVC,,0.03,WeatherDisplay:10.37,2013-03-12 06:51:00,
2013-03-11 23:56:00,46.9,45.3,30.17,SSE,159,1.0,7.0,94,0.00,OVC,,0.03,WeatherDisplay:10.37,2013-03-12 06:56:00,